메인 페이지
METAR-TAF:

METAR-TAF

공항 :

Subic Bay, 필리핀

위도: 14-48N, 경도: 120-16E, 고도: 18m

현재 날씨관측

예보는 22분 전, 14:00시(UTC)에 발표되었습니다.
동북동11kt
온도 28°C
습도 79%
기압 1010 hPa
시정 10km 이상
고도 1800ft 상공 구름 조금, 적란운.
고도 2000ft 상공 구름 보통
고도 8000ft 상공 구름 많음

METAR: RPLB 251400Z 07011KT 9999 FEW018CB SCT020 BKN080 28/24 Q1010 RMK A2983 DSTNT OCNL LTG NW

시각: 22:22 (14:22 UTC)

예보

예보는 3 시간 22분 전, 11:00시(UTC)에 발표되었습니다.
예보 대상 시간: 25일 12시부터 26일 12시까지 (UTC)
동남동8kt
시정 10km 이상
고도 2000ft 상공 구름 조금
고도 8000ft 상공 구름 보통
고도 30000ft 상공 구름 많음
일시적
25일 12시부터 25일 18시까지 (UTC)
12kt
시정: 9000m
고도 1800ft 상공 구름 보통
고도 7000ft 상공 흐림
약한소나기,

TAF: RPLB 251100Z 2512/2612 11008KT 9999 FEW020 SCT080 BKN300 TX36/2606Z TN26/2521Z TEMPO 2512/2518 09012KT 9000 -SHRA SCT018 OVC070

4,000개 이상의 공항 관측 자료 및 예보 (METAR 및 TAF 보고).

지도상에서 검색 가능한 기상관측소가 노란 점과 빨간 점으로 표시되어 있습니다.

기상관측소 명을 보려면 표시 위로 마우스를 이동하세요.

날씨 관측과 예보를 보려면 클릭하세요.

지도 변경 : 확대하려면 엑스 표시가 있는 녹색 버튼, 축소하려면 빼기 표시가 있는 녹색 버튼, 다음 페이지의 지도를 보려면 녹색 화살표를 클릭하세요.


METAR-TAF: